sensor_id;sensor_type;location;lat;lon;timestamp;temperature;humidity
69533;DHT22;56729;52.036;5.332;2023-03-13T00:00:45;9.40;99.90
69533;DHT22;56729;52.036;5.332;2023-03-13T00:01:48;9.50;99.90
69533;DHT22;56729;52.036;5.332;2023-03-13T00:02:50;9.50;99.90
69533;DHT22;56729;52.036;5.332;2023-03-13T00:03:51;9.50;99.90
69533;DHT22;56729;52.036;5.332;2023-03-13T00:04:55;9.50;99.90
69533;DHT22;56729;52.036;5.332;2023-03-13T00:05:58;9.40;99.90
69533;DHT22;56729;52.036;5.332;2023-03-13T00:06:59;9.40;99.90
69533;DHT22;56729;52.036;5.332;2023-03-13T00:08:01;9.40;99.90
69533;DHT22;56729;52.036;5.332;2023-03-13T00:09:05;9.50;99.90
69533;DHT22;56729;52.036;5.332;2023-03-13T00:10:08;9.50;99.90
69533;DHT22;56729;52.036;5.332;2023-03-13T00:11:11;9.50;99.90
69533;DHT22;56729;52.036;5.332;2023-03-13T00:12:13;9.50;99.90
69533;DHT22;56729;52.036;5.332;2023-03-13T00:13:14;9.50;99.90
69533;DHT22;56729;52.036;5.332;2023-03-13T00:14:16;9.50;99.90
69533;DHT22;56729;52.036;5.332;2023-03-13T00:15:18;9.50;99.90
69533;DHT22;56729;52.036;5.332;2023-03-13T00:16:20;9.50;99.90
69533;DHT22;56729;52.036;5.332;2023-03-13T00:17:22;9.50;99.90
69533;DHT22;56729;52.036;5.332;2023-03-13T00:18:24;9.50;99.90
69533;DHT22;56729;52.036;5.332;2023-03-13T00:19:26;9.50;99.90
69533;DHT22;56729;52.036;5.332;2023-03-13T00:20:28;9.50;99.90
69533;DHT22;56729;52.036;5.332;2023-03-13T00:21:30;9.50;99.90
69533;DHT22;56729;52.036;5.332;2023-03-13T00:22:32;9.60;99.90
69533;DHT22;56729;52.036;5.332;2023-03-13T00:23:36;9.60;99.90
69533;DHT22;56729;52.036;5.332;2023-03-13T00:24:38;9.60;99.90
69533;DHT22;56729;52.036;5.332;2023-03-13T00:25:40;9.60;99.90
69533;DHT22;56729;52.036;5.332;2023-03-13T00:26:41;9.60;99.90
69533;DHT22;56729;52.036;5.332;2023-03-13T00:27:44;9.60;99.90
69533;DHT22;56729;52.036;5.332;2023-03-13T00:28:47;9.60;99.90
69533;DHT22;56729;52.036;5.332;2023-03-13T00:29:49;9.60;99.90
69533;DHT22;56729;52.036;5.332;2023-03-13T00:30:52;9.60;99.90
69533;DHT22;56729;52.036;5.332;2023-03-13T00:32:01;9.60;99.90
69533;DHT22;56729;52.036;5.332;2023-03-13T00:33:03;9.60;99.90
69533;DHT22;56729;52.036;5.332;2023-03-13T00:34:05;9.60;99.90
69533;DHT22;56729;52.036;5.332;2023-03-13T00:35:07;9.60;99.90
69533;DHT22;56729;52.036;5.332;2023-03-13T00:36:12;9.60;99.90
69533;DHT22;56729;52.036;5.332;2023-03-13T00:37:13;9.60;99.90
69533;DHT22;56729;52.036;5.332;2023-03-13T00:38:15;9.60;99.90
69533;DHT22;56729;52.036;5.332;2023-03-13T00:39:17;9.60;99.90
69533;DHT22;56729;52.036;5.332;2023-03-13T00:40:19;9.60;99.90
69533;DHT22;56729;52.036;5.332;2023-03-13T00:41:23;9.60;99.90
69533;DHT22;56729;52.036;5.332;2023-03-13T00:42:25;9.60;99.90
69533;DHT22;56729;52.036;5.332;2023-03-13T00:43:29;9.60;99.90
69533;DHT22;56729;52.036;5.332;2023-03-13T00:44:31;9.60;99.90
69533;DHT22;56729;52.036;5.332;2023-03-13T00:45:32;9.60;99.90
69533;DHT22;56729;52.036;5.332;2023-03-13T00:46:34;9.60;99.90
69533;DHT22;56729;52.036;5.332;2023-03-13T00:47:36;9.60;99.90
69533;DHT22;56729;52.036;5.332;2023-03-13T00:48:38;9.60;99.90
69533;DHT22;56729;52.036;5.332;2023-03-13T00:49:40;9.60;99.90
69533;DHT22;56729;52.036;5.332;2023-03-13T00:50:42;9.60;99.90
69533;DHT22;56729;52.036;5.332;2023-03-13T00:51:44;9.60;99.90
69533;DHT22;56729;52.036;5.332;2023-03-13T00:52:45;9.60;99.90
69533;DHT22;56729;52.036;5.332;2023-03-13T00:53:47;9.60;99.90
69533;DHT22;56729;52.036;5.332;2023-03-13T00:54:49;9.60;99.90
69533;DHT22;56729;52.036;5.332;2023-03-13T00:56:03;9.60;99.90
69533;DHT22;56729;52.036;5.332;2023-03-13T00:57:05;9.60;99.90
69533;DHT22;56729;52.036;5.332;2023-03-13T00:58:07;9.60;99.90
69533;DHT22;56729;52.036;5.332;2023-03-13T00:59:09;9.60;99.90
69533;DHT22;56729;52.036;5.332;2023-03-13T01:00:11;9.60;99.90
69533;DHT22;56729;52.036;5.332;2023-03-13T01:01:16;9.60;99.90
69533;DHT22;56729;52.036;5.332;2023-03-13T01:02:18;9.60;99.90
69533;DHT22;56729;52.036;5.332;2023-03-13T01:03:21;9.60;99.90
69533;DHT22;56729;52.036;5.332;2023-03-13T01:04:26;9.60;99.90
69533;DHT22;56729;52.036;5.332;2023-03-13T01:05:28;9.60;99.90
69533;DHT22;56729;52.036;5.332;2023-03-13T01:06:33;9.60;99.90
69533;DHT22;56729;52.036;5.332;2023-03-13T01:07:35;9.60;99.90
69533;DHT22;56729;52.036;5.332;2023-03-13T01:08:37;9.60;99.90
69533;DHT22;56729;52.036;5.332;2023-03-13T01:09:39;9.60;99.90
69533;DHT22;56729;52.036;5.332;2023-03-13T01:10:41;9.60;99.90
69533;DHT22;56729;52.036;5.332;2023-03-13T01:11:44;9.60;99.90
69533;DHT22;56729;52.036;5.332;2023-03-13T01:12:47;9.60;99.90
69533;DHT22;56729;52.036;5.332;2023-03-13T01:13:52;9.60;99.90
69533;DHT22;56729;52.036;5.332;2023-03-13T01:14:54;9.60;99.90
69533;DHT22;56729;52.036;5.332;2023-03-13T01:15:56;9.60;99.90
69533;DHT22;56729;52.036;5.332;2023-03-13T01:16:58;9.60;99.90
69533;DHT22;56729;52.036;5.332;2023-03-13T01:18:00;9.60;99.90
69533;DHT22;56729;52.036;5.332;2023-03-13T01:19:08;9.60;99.90
69533;DHT22;56729;52.036;5.332;2023-03-13T01:20:13;9.60;99.90
69533;DHT22;56729;52.036;5.332;2023-03-13T01:21:16;9.60;99.90
69533;DHT22;56729;52.036;5.332;2023-03-13T01:22:20;9.60;99.90
69533;DHT22;56729;52.036;5.332;2023-03-13T01:23:22;9.60;99.90
69533;DHT22;56729;52.036;5.332;2023-03-13T01:24:24;9.60;99.90
69533;DHT22;56729;52.036;5.332;2023-03-13T01:25:25;9.60;99.90
69533;DHT22;56729;52.036;5.332;2023-03-13T01:26:27;9.70;99.90
69533;DHT22;56729;52.036;5.332;2023-03-13T01:27:29;9.60;99.90
69533;DHT22;56729;52.036;5.332;2023-03-13T01:28:32;9.70;99.90
69533;DHT22;56729;52.036;5.332;2023-03-13T01:29:33;9.70;99.90
69533;DHT22;56729;52.036;5.332;2023-03-13T01:30:35;9.70;99.90
69533;DHT22;56729;52.036;5.332;2023-03-13T01:31:37;9.70;99.90
69533;DHT22;56729;52.036;5.332;2023-03-13T01:32:40;9.70;99.90
69533;DHT22;56729;52.036;5.332;2023-03-13T01:33:42;9.80;99.90
69533;DHT22;56729;52.036;5.332;2023-03-13T01:34:44;9.70;99.90
69533;DHT22;56729;52.036;5.332;2023-03-13T01:35:46;9.80;99.90
69533;DHT22;56729;52.036;5.332;2023-03-13T01:36:48;9.80;99.90
69533;DHT22;56729;52.036;5.332;2023-03-13T01:37:52;9.80;99.90
69533;DHT22;56729;52.036;5.332;2023-03-13T01:38:56;9.80;99.90
69533;DHT22;56729;52.036;5.332;2023-03-13T01:39:58;9.80;99.90
69533;DHT22;56729;52.036;5.332;2023-03-13T01:41:00;9.80;99.90
69533;DHT22;56729;52.036;5.332;2023-03-13T01:42:03;9.80;99.90
69533;DHT22;56729;52.036;5.332;2023-03-13T01:43:22;9.80;99.90
69533;DHT22;56729;52.036;5.332;2023-03-13T01:44:28;9.90;99.90
69533;DHT22;56729;52.036;5.332;2023-03-13T01:47:09;9.90;99.90
69533;DHT22;56729;52.036;5.332;2023-03-13T01:49:36;9.90;99.90
69533;DHT22;56729;52.036;5.332;2023-03-13T01:51:12;9.90;99.90
69533;DHT22;56729;52.036;5.332;2023-03-13T01:52:19;9.90;99.90
69533;DHT22;56729;52.036;5.332;2023-03-13T01:53:29;10.00;99.90
69533;DHT22;56729;52.036;5.332;2023-03-13T01:54:41;10.00;99.90
69533;DHT22;56729;52.036;5.332;2023-03-13T01:55:49;10.00;99.90
69533;DHT22;56729;52.036;5.332;2023-03-13T01:56:55;10.00;99.90
69533;DHT22;56729;52.036;5.332;2023-03-13T01:57:59;10.00;99.90
69533;DHT22;56729;52.036;5.332;2023-03-13T01:59:02;10.00;99.90
69533;DHT22;56729;52.036;5.332;2023-03-13T02:00:20;10.10;99.90
69533;DHT22;56729;52.036;5.332;2023-03-13T02:01:23;10.10;99.90
69533;DHT22;56729;52.036;5.332;2023-03-13T02:02:26;10.10;99.90
69533;DHT22;56729;52.036;5.332;2023-03-13T02:03:28;10.10;99.90
69533;DHT22;56729;52.036;5.332;2023-03-13T02:04:36;10.10;99.90
69533;DHT22;56729;52.036;5.332;2023-03-13T02:05:41;10.10;99.90
69533;DHT22;56729;52.036;5.332;2023-03-13T02:06:44;10.10;99.90
69533;DHT22;56729;52.036;5.332;2023-03-13T02:07:55;10.20;99.90
69533;DHT22;56729;52.036;5.332;2023-03-13T02:09:02;10.20;99.90
69533;DHT22;56729;52.036;5.332;2023-03-13T02:10:13;10.20;99.90
69533;DHT22;56729;52.036;5.332;2023-03-13T02:11:28;10.20;99.90
69533;DHT22;56729;52.036;5.332;2023-03-13T02:12:32;10.20;99.90
69533;DHT22;56729;52.036;5.332;2023-03-13T02:13:35;10.20;99.90
69533;DHT22;56729;52.036;5.332;2023-03-13T02:14:38;10.20;99.90
69533;DHT22;56729;52.036;5.332;2023-03-13T02:15:42;10.30;99.90
69533;DHT22;56729;52.036;5.332;2023-03-13T02:16:45;10.30;99.90
69533;DHT22;56729;52.036;5.332;2023-03-13T02:17:49;10.30;99.90
69533;DHT22;56729;52.036;5.332;2023-03-13T02:18:52;10.30;99.90
69533;DHT22;56729;52.036;5.332;2023-03-13T02:19:54;10.40;99.90
69533;DHT22;56729;52.036;5.332;2023-03-13T02:21:05;10.30;99.90
69533;DHT22;56729;52.036;5.332;2023-03-13T02:23:33;10.40;99.90
69533;DHT22;56729;52.036;5.332;2023-03-13T02:24:50;10.40;99.90
69533;DHT22;56729;52.036;5.332;2023-03-13T02:25:54;10.40;99.90
69533;DHT22;56729;52.036;5.332;2023-03-13T02:27:03;10.40;99.90
69533;DHT22;56729;52.036;5.332;2023-03-13T02:28:11;10.40;99.90
69533;DHT22;56729;52.036;5.332;2023-03-13T02:29:15;10.40;99.90
69533;DHT22;56729;52.036;5.332;2023-03-13T02:30:19;10.50;99.90
69533;DHT22;56729;52.036;5.332;2023-03-13T02:31:21;10.50;99.90
69533;DHT22;56729;52.036;5.332;2023-03-13T02:32:24;10.50;99.90
69533;DHT22;56729;52.036;5.332;2023-03-13T02:33:30;10.50;99.90
69533;DHT22;56729;52.036;5.332;2023-03-13T02:34:34;10.50;99.90
69533;DHT22;56729;52.036;5.332;2023-03-13T02:35:38;10.50;99.90
69533;DHT22;56729;52.036;5.332;2023-03-13T02:36:45;10.50;99.90
69533;DHT22;56729;52.036;5.332;2023-03-13T02:37:59;10.50;99.90
69533;DHT22;56729;52.036;5.332;2023-03-13T02:39:04;10.60;99.90
69533;DHT22;56729;52.036;5.332;2023-03-13T02:40:13;10.60;99.90
69533;DHT22;56729;52.036;5.332;2023-03-13T02:41:17;10.60;99.90
69533;DHT22;56729;52.036;5.332;2023-03-13T02:42:22;10.60;99.90
69533;DHT22;56729;52.036;5.332;2023-03-13T02:43:25;10.60;99.90
69533;DHT22;56729;52.036;5.332;2023-03-13T02:44:30;10.70;99.90
69533;DHT22;56729;52.036;5.332;2023-03-13T02:45:32;10.70;99.90
69533;DHT22;56729;52.036;5.332;2023-03-13T02:46:50;10.70;99.90
69533;DHT22;56729;52.036;5.332;2023-03-13T02:47:56;10.80;99.90
69533;DHT22;56729;52.036;5.332;2023-03-13T02:49:18;10.80;99.90
69533;DHT22;56729;52.036;5.332;2023-03-13T02:50:20;10.80;99.90
69533;DHT22;56729;52.036;5.332;2023-03-13T02:51:34;10.80;99.90
69533;DHT22;56729;52.036;5.332;2023-03-13T02:52:44;10.80;99.90
69533;DHT22;56729;52.036;5.332;2023-03-13T02:53:50;10.90;99.90
69533;DHT22;56729;52.036;5.332;2023-03-13T02:54:57;10.90;99.90
69533;DHT22;56729;52.036;5.332;2023-03-13T02:56:01;10.90;99.90
69533;DHT22;56729;52.036;5.332;2023-03-13T02:57:04;10.90;99.90
69533;DHT22;56729;52.036;5.332;2023-03-13T02:58:07;10.90;99.90
69533;DHT22;56729;52.036;5.332;2023-03-13T02:59:11;11.00;99.90
69533;DHT22;56729;52.036;5.332;2023-03-13T03:00:17;11.00;99.90
69533;DHT22;56729;52.036;5.332;2023-03-13T03:01:19;11.00;99.90
69533;DHT22;56729;52.036;5.332;2023-03-13T03:02:21;11.00;99.90
69533;DHT22;56729;52.036;5.332;2023-03-13T03:03:23;11.10;99.90
69533;DHT22;56729;52.036;5.332;2023-03-13T03:04:25;11.10;99.90
69533;DHT22;56729;52.036;5.332;2023-03-13T03:05:29;11.10;99.90
69533;DHT22;56729;52.036;5.332;2023-03-13T03:06:32;11.10;99.90
69533;DHT22;56729;52.036;5.332;2023-03-13T03:07:36;11.10;99.90
69533;DHT22;56729;52.036;5.332;2023-03-13T03:08:39;11.20;99.90
69533;DHT22;56729;52.036;5.332;2023-03-13T03:09:44;11.20;99.90
69533;DHT22;56729;52.036;5.332;2023-03-13T03:10:51;11.20;99.90
69533;DHT22;56729;52.036;5.332;2023-03-13T03:11:55;11.20;99.90
69533;DHT22;56729;52.036;5.332;2023-03-13T03:12:59;11.20;99.90
69533;DHT22;56729;52.036;5.332;2023-03-13T03:14:01;11.20;99.90
69533;DHT22;56729;52.036;5.332;2023-03-13T03:15:09;11.30;99.90
69533;DHT22;56729;52.036;5.332;2023-03-13T03:16:15;11.30;99.90
69533;DHT22;56729;52.036;5.332;2023-03-13T03:17:19;11.30;99.90
69533;DHT22;56729;52.036;5.332;2023-03-13T03:18:21;11.30;99.90
69533;DHT22;56729;52.036;5.332;2023-03-13T03:19:23;11.30;99.90
69533;DHT22;56729;52.036;5.332;2023-03-13T03:20:24;11.30;99.90
69533;DHT22;56729;52.036;5.332;2023-03-13T03:21:26;11.30;99.90
69533;DHT22;56729;52.036;5.332;2023-03-13T03:22:28;11.40;99.90
69533;DHT22;56729;52.036;5.332;2023-03-13T03:23:31;11.40;99.90
69533;DHT22;56729;52.036;5.332;2023-03-13T03:24:33;11.40;99.90
69533;DHT22;56729;52.036;5.332;2023-03-13T03:25:35;11.40;99.90
69533;DHT22;56729;52.036;5.332;2023-03-13T03:26:36;11.40;99.90
69533;DHT22;56729;52.036;5.332;2023-03-13T03:27:45;11.40;99.90
69533;DHT22;56729;52.036;5.332;2023-03-13T03:28:47;11.50;99.90
69533;DHT22;56729;52.036;5.332;2023-03-13T03:29:48;11.50;99.90
69533;DHT22;56729;52.036;5.332;2023-03-13T03:30:50;11.50;99.90
69533;DHT22;56729;52.036;5.332;2023-03-13T03:31:55;11.50;99.90
69533;DHT22;56729;52.036;5.332;2023-03-13T03:32:57;11.50;99.90
69533;DHT22;56729;52.036;5.332;2023-03-13T03:33:59;11.50;99.90
69533;DHT22;56729;52.036;5.332;2023-03-13T03:35:02;11.50;99.90
69533;DHT22;56729;52.036;5.332;2023-03-13T03:36:07;11.60;99.90
69533;DHT22;56729;52.036;5.332;2023-03-13T03:37:09;11.60;99.90
69533;DHT22;56729;52.036;5.332;2023-03-13T03:38:13;11.60;99.90
69533;DHT22;56729;52.036;5.332;2023-03-13T03:39:14;11.60;99.90
69533;DHT22;56729;52.036;5.332;2023-03-13T03:40:17;11.60;99.90
69533;DHT22;56729;52.036;5.332;2023-03-13T03:41:19;11.60;99.90
69533;DHT22;56729;52.036;5.332;2023-03-13T03:42:21;11.70;99.90
69533;DHT22;56729;52.036;5.332;2023-03-13T03:43:23;11.70;99.90
69533;DHT22;56729;52.036;5.332;2023-03-13T03:44:25;11.70;99.90
69533;DHT22;56729;52.036;5.332;2023-03-13T03:45:29;11.70;99.90
69533;DHT22;56729;52.036;5.332;2023-03-13T03:46:31;11.70;99.90
69533;DHT22;56729;52.036;5.332;2023-03-13T03:47:34;11.70;99.90
69533;DHT22;56729;52.036;5.332;2023-03-13T03:48:36;11.70;99.90
69533;DHT22;56729;52.036;5.332;2023-03-13T03:49:40;11.80;99.90
69533;DHT22;56729;52.036;5.332;2023-03-13T03:50:44;11.80;99.90
69533;DHT22;56729;52.036;5.332;2023-03-13T03:51:48;11.70;99.90
69533;DHT22;56729;52.036;5.332;2023-03-13T03:52:56;11.80;99.90
69533;DHT22;56729;52.036;5.332;2023-03-13T03:53:59;11.80;99.90
69533;DHT22;56729;52.036;5.332;2023-03-13T03:55:04;11.80;99.90
69533;DHT22;56729;52.036;5.332;2023-03-13T03:56:06;11.80;99.90
69533;DHT22;56729;52.036;5.332;2023-03-13T03:57:11;11.80;99.90
69533;DHT22;56729;52.036;5.332;2023-03-13T03:58:16;11.80;99.90
69533;DHT22;56729;52.036;5.332;2023-03-13T03:59:34;11.90;99.90
69533;DHT22;56729;52.036;5.332;2023-03-13T04:00:47;11.90;99.90
69533;DHT22;56729;52.036;5.332;2023-03-13T04:01:50;11.90;99.90
69533;DHT22;56729;52.036;5.332;2023-03-13T04:02:55;11.90;99.90
69533;DHT22;56729;52.036;5.332;2023-03-13T04:03:57;11.90;99.90
69533;DHT22;56729;52.036;5.332;2023-03-13T04:04:59;11.90;99.90
69533;DHT22;56729;52.036;5.332;2023-03-13T04:06:05;11.90;99.90
69533;DHT22;56729;52.036;5.332;2023-03-13T04:07:07;11.90;99.90
69533;DHT22;56729;52.036;5.332;2023-03-13T04:08:09;11.90;99.90
69533;DHT22;56729;52.036;5.332;2023-03-13T04:09:11;11.90;99.90
69533;DHT22;56729;52.036;5.332;2023-03-13T04:10:13;11.90;99.90
69533;DHT22;56729;52.036;5.332;2023-03-13T04:11:18;12.00;99.90
69533;DHT22;56729;52.036;5.332;2023-03-13T04:12:24;12.00;99.90
69533;DHT22;56729;52.036;5.332;2023-03-13T04:13:28;12.00;99.90
69533;DHT22;56729;52.036;5.332;2023-03-13T04:14:32;12.00;99.90
69533;DHT22;56729;52.036;5.332;2023-03-13T04:15:40;12.00;99.90
69533;DHT22;56729;52.036;5.332;2023-03-13T04:16:43;12.00;99.90
69533;DHT22;56729;52.036;5.332;2023-03-13T04:17:51;12.10;99.90
69533;DHT22;56729;52.036;5.332;2023-03-13T04:18:55;12.10;99.90
69533;DHT22;56729;52.036;5.332;2023-03-13T04:19:59;12.00;99.90
69533;DHT22;56729;52.036;5.332;2023-03-13T04:21:04;12.10;99.90
69533;DHT22;56729;52.036;5.332;2023-03-13T04:22:21;12.10;99.90
69533;DHT22;56729;52.036;5.332;2023-03-13T04:23:28;12.10;99.90
69533;DHT22;56729;52.036;5.332;2023-03-13T04:24:30;12.10;99.90
69533;DHT22;56729;52.036;5.332;2023-03-13T04:25:32;12.10;99.90
69533;DHT22;56729;52.036;5.332;2023-03-13T04:26:35;12.10;99.90
69533;DHT22;56729;52.036;5.332;2023-03-13T04:27:37;12.10;99.90
69533;DHT22;56729;52.036;5.332;2023-03-13T04:28:39;12.10;99.90
69533;DHT22;56729;52.036;5.332;2023-03-13T04:29:43;12.10;99.90
69533;DHT22;56729;52.036;5.332;2023-03-13T04:31:03;12.10;99.90
69533;DHT22;56729;52.036;5.332;2023-03-13T04:32:15;12.10;99.90
69533;DHT22;56729;52.036;5.332;2023-03-13T04:33:36;12.10;99.90
69533;DHT22;56729;52.036;5.332;2023-03-13T04:34:46;12.10;99.90
69533;DHT22;56729;52.036;5.332;2023-03-13T04:36:07;12.10;99.90
69533;DHT22;56729;52.036;5.332;2023-03-13T04:37:21;12.10;99.90
69533;DHT22;56729;52.036;5.332;2023-03-13T04:38:41;12.10;99.90
69533;DHT22;56729;52.036;5.332;2023-03-13T04:40:04;12.20;99.90
69533;DHT22;56729;52.036;5.332;2023-03-13T04:41:26;12.20;99.90
69533;DHT22;56729;52.036;5.332;2023-03-13T04:42:44;12.20;99.90
69533;DHT22;56729;52.036;5.332;2023-03-13T04:44:12;12.20;99.90
69533;DHT22;56729;52.036;5.332;2023-03-13T04:45:42;12.20;99.90
69533;DHT22;56729;52.036;5.332;2023-03-13T04:46:55;12.20;99.90
69533;DHT22;56729;52.036;5.332;2023-03-13T04:48:11;12.20;99.90
69533;DHT22;56729;52.036;5.332;2023-03-13T04:49:36;12.20;99.90
69533;DHT22;56729;52.036;5.332;2023-03-13T04:50:51;12.20;99.90
69533;DHT22;56729;52.036;5.332;2023-03-13T04:52:04;12.30;99.90
69533;DHT22;56729;52.036;5.332;2023-03-13T04:53:38;12.30;99.90
69533;DHT22;56729;52.036;5.332;2023-03-13T04:54:53;12.30;99.90
69533;DHT22;56729;52.036;5.332;2023-03-13T04:56:24;12.30;99.90
69533;DHT22;56729;52.036;5.332;2023-03-13T04:58:05;12.30;99.90
69533;DHT22;56729;52.036;5.332;2023-03-13T04:59:16;12.30;99.90
69533;DHT22;56729;52.036;5.332;2023-03-13T05:00:41;12.30;99.90
69533;DHT22;56729;52.036;5.332;2023-03-13T05:01:49;12.30;99.90
69533;DHT22;56729;52.036;5.332;2023-03-13T05:03:20;12.40;99.90
69533;DHT22;56729;52.036;5.332;2023-03-13T05:04:37;12.40;99.90
69533;DHT22;56729;52.036;5.332;2023-03-13T05:06:00;12.40;99.90
69533;DHT22;56729;52.036;5.332;2023-03-13T05:07:31;12.40;99.90
69533;DHT22;56729;52.036;5.332;2023-03-13T05:08:46;12.40;99.90
69533;DHT22;56729;52.036;5.332;2023-03-13T05:10:12;12.40;99.90
69533;DHT22;56729;52.036;5.332;2023-03-13T05:11:20;12.40;99.90
69533;DHT22;56729;52.036;5.332;2023-03-13T05:12:37;12.40;99.90
69533;DHT22;56729;52.036;5.332;2023-03-13T05:14:01;12.40;99.90
69533;DHT22;56729;52.036;5.332;2023-03-13T05:15:09;12.50;99.90
69533;DHT22;56729;52.036;5.332;2023-03-13T05:16:28;12.50;99.90
69533;DHT22;56729;52.036;5.332;2023-03-13T05:17:48;12.50;99.90
69533;DHT22;56729;52.036;5.332;2023-03-13T05:18:56;12.40;99.90
69533;DHT22;56729;52.036;5.332;2023-03-13T05:20:16;12.50;99.90
69533;DHT22;56729;52.036;5.332;2023-03-13T05:21:24;12.50;99.90
69533;DHT22;56729;52.036;5.332;2023-03-13T05:22:50;12.50;99.90
69533;DHT22;56729;52.036;5.332;2023-03-13T05:24:30;12.50;99.90
69533;DHT22;56729;52.036;5.332;2023-03-13T05:25:51;12.50;99.90
69533;DHT22;56729;52.036;5.332;2023-03-13T05:27:16;12.50;99.90
69533;DHT22;56729;52.036;5.332;2023-03-13T05:28:36;12.60;99.90
69533;DHT22;56729;52.036;5.332;2023-03-13T05:30:01;12.60;99.90
69533;DHT22;56729;52.036;5.332;2023-03-13T05:31:17;12.60;99.90
69533;DHT22;56729;52.036;5.332;2023-03-13T05:32:35;12.60;99.90
69533;DHT22;56729;52.036;5.332;2023-03-13T05:33:57;12.60;99.90
69533;DHT22;56729;52.036;5.332;2023-03-13T05:35:08;12.60;99.90
69533;DHT22;56729;52.036;5.332;2023-03-13T05:36:21;12.60;99.90
69533;DHT22;56729;52.036;5.332;2023-03-13T05:37:33;12.60;99.90
69533;DHT22;56729;52.036;5.332;2023-03-13T05:38:49;12.60;99.90
69533;DHT22;56729;52.036;5.332;2023-03-13T05:40:15;12.60;99.90
69533;DHT22;56729;52.036;5.332;2023-03-13T05:41:35;12.60;99.90
69533;DHT22;56729;52.036;5.332;2023-03-13T05:42:51;12.60;99.90
69533;DHT22;56729;52.036;5.332;2023-03-13T05:44:02;12.60;99.90
69533;DHT22;56729;52.036;5.332;2023-03-13T05:45:10;12.70;99.90
69533;DHT22;56729;52.036;5.332;2023-03-13T05:46:35;12.70;99.90
69533;DHT22;56729;52.036;5.332;2023-03-13T05:48:06;12.70;99.90
69533;DHT22;56729;52.036;5.332;2023-03-13T05:49:25;12.60;99.90
69533;DHT22;56729;52.036;5.332;2023-03-13T05:50:45;12.70;99.90
69533;DHT22;56729;52.036;5.332;2023-03-13T05:52:06;12.70;99.90
69533;DHT22;56729;52.036;5.332;2023-03-13T05:53:30;12.70;99.90
69533;DHT22;56729;52.036;5.332;2023-03-13T05:54:38;12.70;99.90
69533;DHT22;56729;52.036;5.332;2023-03-13T05:55:57;12.70;99.90
69533;DHT22;56729;52.036;5.332;2023-03-13T05:57:20;12.70;99.90
69533;DHT22;56729;52.036;5.332;2023-03-13T05:58:34;12.70;99.90
69533;DHT22;56729;52.036;5.332;2023-03-13T06:00:08;12.70;99.90
69533;DHT22;56729;52.036;5.332;2023-03-13T06:01:32;12.70;99.90
69533;DHT22;56729;52.036;5.332;2023-03-13T06:02:43;12.70;99.90
69533;DHT22;56729;52.036;5.332;2023-03-13T06:03:49;12.70;99.90
69533;DHT22;56729;52.036;5.332;2023-03-13T06:04:52;12.70;99.90
69533;DHT22;56729;52.036;5.332;2023-03-13T06:05:57;12.80;99.90
69533;DHT22;56729;52.036;5.332;2023-03-13T06:07:13;12.80;99.90
69533;DHT22;56729;52.036;5.332;2023-03-13T06:08:15;12.80;99.90
69533;DHT22;56729;52.036;5.332;2023-03-13T06:09:17;12.80;99.90
69533;DHT22;56729;52.036;5.332;2023-03-13T06:10:19;12.80;99.90
69533;DHT22;56729;52.036;5.332;2023-03-13T06:11:21;12.80;99.90
69533;DHT22;56729;52.036;5.332;2023-03-13T06:12:23;12.80;99.90
69533;DHT22;56729;52.036;5.332;2023-03-13T06:13:24;12.80;99.90
69533;DHT22;56729;52.036;5.332;2023-03-13T06:14:28;12.80;99.90
69533;DHT22;56729;52.036;5.332;2023-03-13T06:15:55;12.90;99.90
69533;DHT22;56729;52.036;5.332;2023-03-13T06:17:11;12.90;99.90
69533;DHT22;56729;52.036;5.332;2023-03-13T06:18:13;12.80;99.90
69533;DHT22;56729;52.036;5.332;2023-03-13T06:19:15;12.80;99.90
69533;DHT22;56729;52.036;5.332;2023-03-13T06:20:17;12.90;99.90
69533;DHT22;56729;52.036;5.332;2023-03-13T06:21:19;12.80;99.90
69533;DHT22;56729;52.036;5.332;2023-03-13T06:22:21;12.90;99.90
69533;DHT22;56729;52.036;5.332;2023-03-13T06:23:22;12.90;99.90
69533;DHT22;56729;52.036;5.332;2023-03-13T06:24:24;12.90;99.90
69533;DHT22;56729;52.036;5.332;2023-03-13T06:25:26;12.90;99.90
69533;DHT22;56729;52.036;5.332;2023-03-13T06:26:28;12.90;99.90
69533;DHT22;56729;52.036;5.332;2023-03-13T06:27:30;12.90;99.90
69533;DHT22;56729;52.036;5.332;2023-03-13T06:28:31;12.90;99.90
69533;DHT22;56729;52.036;5.332;2023-03-13T06:29:33;13.00;99.90
69533;DHT22;56729;52.036;5.332;2023-03-13T06:30:35;13.00;99.90
69533;DHT22;56729;52.036;5.332;2023-03-13T06:31:37;13.00;99.90
69533;DHT22;56729;52.036;5.332;2023-03-13T06:32:39;13.00;99.90
69533;DHT22;56729;52.036;5.332;2023-03-13T06:33:41;13.00;99.90
69533;DHT22;56729;52.036;5.332;2023-03-13T06:34:42;13.00;99.90
69533;DHT22;56729;52.036;5.332;2023-03-13T06:35:44;13.10;99.90
69533;DHT22;56729;52.036;5.332;2023-03-13T06:36:57;13.10;99.90
69533;DHT22;56729;52.036;5.332;2023-03-13T06:38:00;13.10;99.90
69533;DHT22;56729;52.036;5.332;2023-03-13T06:39:02;13.10;99.90
69533;DHT22;56729;52.036;5.332;2023-03-13T06:40:05;13.10;99.90
69533;DHT22;56729;52.036;5.332;2023-03-13T06:41:08;13.10;99.90
69533;DHT22;56729;52.036;5.332;2023-03-13T06:42:10;13.10;99.90
69533;DHT22;56729;52.036;5.332;2023-03-13T06:43:12;13.10;99.90
69533;DHT22;56729;52.036;5.332;2023-03-13T06:44:13;13.10;99.90
69533;DHT22;56729;52.036;5.332;2023-03-13T06:45:15;13.10;99.90
69533;DHT22;56729;52.036;5.332;2023-03-13T06:46:23;13.10;99.90
69533;DHT22;56729;52.036;5.332;2023-03-13T06:47:25;13.10;99.90
69533;DHT22;56729;52.036;5.332;2023-03-13T06:48:30;13.10;99.90
69533;DHT22;56729;52.036;5.332;2023-03-13T06:49:31;13.10;99.90
69533;DHT22;56729;52.036;5.332;2023-03-13T06:50:37;13.10;99.90
69533;DHT22;56729;52.036;5.332;2023-03-13T06:51:39;13.10;99.90
69533;DHT22;56729;52.036;5.332;2023-03-13T06:52:40;13.10;99.90
69533;DHT22;56729;52.036;5.332;2023-03-13T06:53:46;13.10;99.90
69533;DHT22;56729;52.036;5.332;2023-03-13T06:54:48;13.10;99.90
69533;DHT22;56729;52.036;5.332;2023-03-13T06:55:50;13.10;99.90
69533;DHT22;56729;52.036;5.332;2023-03-13T06:56:52;13.20;99.90
69533;DHT22;56729;52.036;5.332;2023-03-13T06:57:54;13.20;99.90
69533;DHT22;56729;52.036;5.332;2023-03-13T06:58:56;13.20;99.90
69533;DHT22;56729;52.036;5.332;2023-03-13T07:00:02;13.20;99.90
69533;DHT22;56729;52.036;5.332;2023-03-13T07:01:11;13.20;99.90
69533;DHT22;56729;52.036;5.332;2023-03-13T07:02:14;13.20;99.90
69533;DHT22;56729;52.036;5.332;2023-03-13T07:03:16;13.20;99.90
69533;DHT22;56729;52.036;5.332;2023-03-13T07:04:18;13.30;99.90
69533;DHT22;56729;52.036;5.332;2023-03-13T07:05:20;13.30;99.90
69533;DHT22;56729;52.036;5.332;2023-03-13T07:06:22;13.30;99.90
69533;DHT22;56729;52.036;5.332;2023-03-13T07:07:24;13.30;99.90
69533;DHT22;56729;52.036;5.332;2023-03-13T07:08:33;13.30;99.90
69533;DHT22;56729;52.036;5.332;2023-03-13T07:09:35;13.30;99.90